sensor_id;sensor_type;location;lat;lon;timestamp;P1;durP1;ratioP1;P2;durP2;ratioP2
9783;SDS011;4931;44.874;-1.092;2023-07-29T00:00:39;11.07;;;4.50;;
9783;SDS011;4931;44.874;-1.092;2023-07-29T00:03:05;10.80;;;4.65;;
9783;SDS011;4931;44.874;-1.092;2023-07-29T00:05:30;9.35;;;4.70;;
9783;SDS011;4931;44.874;-1.092;2023-07-29T00:07:56;11.27;;;4.38;;
9783;SDS011;4931;44.874;-1.092;2023-07-29T00:10:22;9.45;;;4.20;;
9783;SDS011;4931;44.874;-1.092;2023-07-29T00:12:47;12.07;;;4.50;;
9783;SDS011;4931;44.874;-1.092;2023-07-29T00:15:13;11.23;;;4.60;;
9783;SDS011;4931;44.874;-1.092;2023-07-29T00:17:38;10.52;;;4.57;;
9783;SDS011;4931;44.874;-1.092;2023-07-29T00:20:04;10.30;;;4.57;;
9783;SDS011;4931;44.874;-1.092;2023-07-29T00:22:31;8.40;;;4.07;;
9783;SDS011;4931;44.874;-1.092;2023-07-29T00:24:56;12.27;;;4.10;;
9783;SDS011;4931;44.874;-1.092;2023-07-29T00:27:25;7.35;;;3.95;;
9783;SDS011;4931;44.874;-1.092;2023-07-29T00:29:51;11.20;;;4.30;;
9783;SDS011;4931;44.874;-1.092;2023-07-29T00:32:17;10.43;;;4.50;;
9783;SDS011;4931;44.874;-1.092;2023-07-29T00:34:43;8.65;;;3.88;;
9783;SDS011;4931;44.874;-1.092;2023-07-29T00:37:09;10.85;;;4.40;;
9783;SDS011;4931;44.874;-1.092;2023-07-29T00:39:35;11.57;;;4.30;;
9783;SDS011;4931;44.874;-1.092;2023-07-29T00:42:02;15.85;;;4.53;;
9783;SDS011;4931;44.874;-1.092;2023-07-29T00:44:28;13.82;;;4.57;;
9783;SDS011;4931;44.874;-1.092;2023-07-29T00:46:53;10.40;;;4.00;;
9783;SDS011;4931;44.874;-1.092;2023-07-29T00:49:20;13.10;;;4.80;;
9783;SDS011;4931;44.874;-1.092;2023-07-29T00:51:46;10.23;;;4.53;;
9783;SDS011;4931;44.874;-1.092;2023-07-29T00:54:13;10.85;;;4.10;;
9783;SDS011;4931;44.874;-1.092;2023-07-29T00:56:38;9.77;;;4.30;;
9783;SDS011;4931;44.874;-1.092;2023-07-29T00:59:05;10.90;;;4.50;;
9783;SDS011;4931;44.874;-1.092;2023-07-29T01:01:31;10.52;;;4.13;;
9783;SDS011;4931;44.874;-1.092;2023-07-29T01:03:57;8.48;;;4.43;;
9783;SDS011;4931;44.874;-1.092;2023-07-29T01:09:08;12.18;;;4.65;;
9783;SDS011;4931;44.874;-1.092;2023-07-29T01:11:48;9.52;;;3.80;;
9783;SDS011;4931;44.874;-1.092;2023-07-29T01:17:15;10.70;;;4.40;;
9783;SDS011;4931;44.874;-1.092;2023-07-29T01:20:07;6.45;;;3.97;;
9783;SDS011;4931;44.874;-1.092;2023-07-29T01:22:34;10.75;;;4.38;;
9783;SDS011;4931;44.874;-1.092;2023-07-29T01:25:01;9.82;;;4.72;;
9783;SDS011;4931;44.874;-1.092;2023-07-29T01:27:27;10.73;;;4.65;;
9783;SDS011;4931;44.874;-1.092;2023-07-29T01:29:53;10.15;;;4.55;;
9783;SDS011;4931;44.874;-1.092;2023-07-29T01:32:25;13.25;;;4.38;;
9783;SDS011;4931;44.874;-1.092;2023-07-29T01:37:39;12.10;;;4.30;;
9783;SDS011;4931;44.874;-1.092;2023-07-29T01:40:07;8.95;;;4.25;;
9783;SDS011;4931;44.874;-1.092;2023-07-29T01:42:34;10.38;;;4.47;;
9783;SDS011;4931;44.874;-1.092;2023-07-29T01:44:59;9.27;;;4.50;;
9783;SDS011;4931;44.874;-1.092;2023-07-29T01:47:25;11.57;;;4.65;;
9783;SDS011;4931;44.874;-1.092;2023-07-29T01:49:50;13.55;;;4.50;;
9783;SDS011;4931;44.874;-1.092;2023-07-29T01:52:16;9.43;;;4.45;;
9783;SDS011;4931;44.874;-1.092;2023-07-29T01:54:42;10.82;;;4.60;;
9783;SDS011;4931;44.874;-1.092;2023-07-29T01:57:07;12.43;;;4.45;;
9783;SDS011;4931;44.874;-1.092;2023-07-29T01:59:33;11.95;;;4.53;;
9783;SDS011;4931;44.874;-1.092;2023-07-29T02:01:58;11.57;;;4.00;;
9783;SDS011;4931;44.874;-1.092;2023-07-29T02:04:24;8.05;;;4.07;;
9783;SDS011;4931;44.874;-1.092;2023-07-29T02:06:49;11.35;;;4.90;;
9783;SDS011;4931;44.874;-1.092;2023-07-29T02:09:15;11.40;;;4.55;;
9783;SDS011;4931;44.874;-1.092;2023-07-29T02:11:40;11.73;;;4.15;;
9783;SDS011;4931;44.874;-1.092;2023-07-29T02:14:05;15.45;;;4.20;;
9783;SDS011;4931;44.874;-1.092;2023-07-29T02:16:31;9.95;;;4.60;;
9783;SDS011;4931;44.874;-1.092;2023-07-29T02:18:58;10.38;;;4.45;;
9783;SDS011;4931;44.874;-1.092;2023-07-29T02:21:23;10.63;;;4.40;;
9783;SDS011;4931;44.874;-1.092;2023-07-29T02:23:49;12.63;;;5.60;;
9783;SDS011;4931;44.874;-1.092;2023-07-29T02:26:14;19.25;;;6.30;;
9783;SDS011;4931;44.874;-1.092;2023-07-29T02:28:39;11.50;;;4.90;;
9783;SDS011;4931;44.874;-1.092;2023-07-29T02:31:09;10.15;;;4.38;;
9783;SDS011;4931;44.874;-1.092;2023-07-29T02:33:35;15.90;;;5.18;;
9783;SDS011;4931;44.874;-1.092;2023-07-29T02:36:01;9.73;;;4.70;;
9783;SDS011;4931;44.874;-1.092;2023-07-29T02:38:26;12.77;;;4.63;;
9783;SDS011;4931;44.874;-1.092;2023-07-29T02:40:52;8.85;;;4.80;;
9783;SDS011;4931;44.874;-1.092;2023-07-29T02:43:17;8.70;;;4.82;;
9783;SDS011;4931;44.874;-1.092;2023-07-29T02:45:43;13.48;;;5.53;;
9783;SDS011;4931;44.874;-1.092;2023-07-29T02:48:08;12.55;;;5.20;;
9783;SDS011;4931;44.874;-1.092;2023-07-29T02:50:34;10.63;;;5.10;;
9783;SDS011;4931;44.874;-1.092;2023-07-29T02:52:59;11.25;;;5.03;;
9783;SDS011;4931;44.874;-1.092;2023-07-29T02:55:26;10.27;;;5.07;;
9783;SDS011;4931;44.874;-1.092;2023-07-29T02:57:52;15.60;;;5.70;;
9783;SDS011;4931;44.874;-1.092;2023-07-29T03:00:17;10.43;;;5.05;;
9783;SDS011;4931;44.874;-1.092;2023-07-29T03:02:43;11.40;;;4.72;;
9783;SDS011;4931;44.874;-1.092;2023-07-29T03:05:08;11.75;;;4.85;;
9783;SDS011;4931;44.874;-1.092;2023-07-29T03:07:38;9.63;;;4.57;;
9783;SDS011;4931;44.874;-1.092;2023-07-29T03:10:03;10.43;;;4.55;;
9783;SDS011;4931;44.874;-1.092;2023-07-29T03:12:30;7.55;;;4.15;;
9783;SDS011;4931;44.874;-1.092;2023-07-29T03:14:56;8.68;;;4.00;;
9783;SDS011;4931;44.874;-1.092;2023-07-29T03:17:21;7.47;;;3.85;;
9783;SDS011;4931;44.874;-1.092;2023-07-29T03:19:47;10.45;;;4.15;;
9783;SDS011;4931;44.874;-1.092;2023-07-29T03:22:12;11.35;;;4.38;;
9783;SDS011;4931;44.874;-1.092;2023-07-29T03:24:38;12.20;;;5.00;;
9783;SDS011;4931;44.874;-1.092;2023-07-29T03:27:03;11.35;;;4.32;;
9783;SDS011;4931;44.874;-1.092;2023-07-29T03:29:30;10.52;;;4.90;;
9783;SDS011;4931;44.874;-1.092;2023-07-29T03:31:55;10.85;;;4.53;;
9783;SDS011;4931;44.874;-1.092;2023-07-29T03:34:21;12.35;;;4.13;;
9783;SDS011;4931;44.874;-1.092;2023-07-29T03:36:46;13.43;;;5.05;;
9783;SDS011;4931;44.874;-1.092;2023-07-29T03:39:13;7.72;;;4.30;;
9783;SDS011;4931;44.874;-1.092;2023-07-29T03:41:39;13.00;;;4.70;;
9783;SDS011;4931;44.874;-1.092;2023-07-29T03:44:05;12.77;;;5.00;;
9783;SDS011;4931;44.874;-1.092;2023-07-29T03:46:31;15.50;;;5.45;;
9783;SDS011;4931;44.874;-1.092;2023-07-29T03:48:56;13.63;;;5.25;;
9783;SDS011;4931;44.874;-1.092;2023-07-29T03:51:22;9.90;;;4.30;;
9783;SDS011;4931;44.874;-1.092;2023-07-29T03:53:49;11.25;;;4.55;;
9783;SDS011;4931;44.874;-1.092;2023-07-29T03:56:15;15.75;;;5.03;;
9783;SDS011;4931;44.874;-1.092;2023-07-29T03:58:41;12.02;;;5.45;;
9783;SDS011;4931;44.874;-1.092;2023-07-29T04:01:09;8.77;;;4.95;;
9783;SDS011;4931;44.874;-1.092;2023-07-29T04:03:34;10.18;;;4.82;;
9783;SDS011;4931;44.874;-1.092;2023-07-29T04:06:00;12.20;;;4.97;;
9783;SDS011;4931;44.874;-1.092;2023-07-29T04:08:25;11.23;;;5.20;;
9783;SDS011;4931;44.874;-1.092;2023-07-29T04:10:51;12.60;;;5.20;;
9783;SDS011;4931;44.874;-1.092;2023-07-29T04:13:16;14.68;;;5.68;;
9783;SDS011;4931;44.874;-1.092;2023-07-29T04:15:42;11.85;;;5.07;;
9783;SDS011;4931;44.874;-1.092;2023-07-29T04:18:08;10.05;;;5.20;;
9783;SDS011;4931;44.874;-1.092;2023-07-29T04:20:33;13.55;;;5.32;;
9783;SDS011;4931;44.874;-1.092;2023-07-29T04:22:59;13.00;;;5.40;;
9783;SDS011;4931;44.874;-1.092;2023-07-29T04:25:25;11.50;;;5.45;;
9783;SDS011;4931;44.874;-1.092;2023-07-29T04:27:50;13.18;;;5.70;;
9783;SDS011;4931;44.874;-1.092;2023-07-29T04:30:16;10.07;;;5.20;;
9783;SDS011;4931;44.874;-1.092;2023-07-29T04:32:41;9.35;;;5.07;;
9783;SDS011;4931;44.874;-1.092;2023-07-29T04:35:07;12.52;;;5.78;;
9783;SDS011;4931;44.874;-1.092;2023-07-29T04:37:33;10.40;;;5.30;;
9783;SDS011;4931;44.874;-1.092;2023-07-29T04:39:59;10.38;;;5.22;;
9783;SDS011;4931;44.874;-1.092;2023-07-29T04:42:24;10.38;;;4.68;;
9783;SDS011;4931;44.874;-1.092;2023-07-29T04:44:50;10.95;;;5.45;;
9783;SDS011;4931;44.874;-1.092;2023-07-29T04:47:15;7.75;;;5.10;;
9783;SDS011;4931;44.874;-1.092;2023-07-29T04:49:41;8.18;;;5.13;;
9783;SDS011;4931;44.874;-1.092;2023-07-29T04:52:07;11.25;;;5.20;;
9783;SDS011;4931;44.874;-1.092;2023-07-29T04:54:32;10.93;;;5.50;;
9783;SDS011;4931;44.874;-1.092;2023-07-29T04:56:58;10.50;;;5.70;;
9783;SDS011;4931;44.874;-1.092;2023-07-29T04:59:23;8.88;;;5.90;;
9783;SDS011;4931;44.874;-1.092;2023-07-29T05:01:49;10.85;;;5.05;;
9783;SDS011;4931;44.874;-1.092;2023-07-29T05:04:14;8.15;;;4.50;;
9783;SDS011;4931;44.874;-1.092;2023-07-29T05:06:40;10.35;;;5.10;;
9783;SDS011;4931;44.874;-1.092;2023-07-29T05:09:15;9.55;;;5.22;;
9783;SDS011;4931;44.874;-1.092;2023-07-29T05:11:43;9.50;;;5.00;;
9783;SDS011;4931;44.874;-1.092;2023-07-29T05:14:13;9.50;;;5.30;;
9783;SDS011;4931;44.874;-1.092;2023-07-29T05:16:39;9.35;;;5.28;;
9783;SDS011;4931;44.874;-1.092;2023-07-29T05:19:05;10.07;;;4.93;;
9783;SDS011;4931;44.874;-1.092;2023-07-29T05:21:30;8.90;;;5.50;;
9783;SDS011;4931;44.874;-1.092;2023-07-29T05:23:56;9.20;;;5.05;;
9783;SDS011;4931;44.874;-1.092;2023-07-29T05:26:22;10.50;;;5.20;;
9783;SDS011;4931;44.874;-1.092;2023-07-29T05:28:47;8.18;;;5.30;;
9783;SDS011;4931;44.874;-1.092;2023-07-29T05:31:13;11.25;;;4.85;;
9783;SDS011;4931;44.874;-1.092;2023-07-29T05:33:38;9.85;;;5.05;;
9783;SDS011;4931;44.874;-1.092;2023-07-29T05:36:04;8.40;;;5.20;;
9783;SDS011;4931;44.874;-1.092;2023-07-29T05:38:30;8.95;;;5.25;;
9783;SDS011;4931;44.874;-1.092;2023-07-29T05:40:55;7.50;;;4.78;;
9783;SDS011;4931;44.874;-1.092;2023-07-29T05:43:21;10.50;;;4.57;;
9783;SDS011;4931;44.874;-1.092;2023-07-29T05:45:47;9.68;;;5.10;;
9783;SDS011;4931;44.874;-1.092;2023-07-29T05:48:12;9.23;;;4.70;;
9783;SDS011;4931;44.874;-1.092;2023-07-29T05:50:37;10.50;;;4.65;;
9783;SDS011;4931;44.874;-1.092;2023-07-29T05:53:03;8.07;;;5.00;;
9783;SDS011;4931;44.874;-1.092;2023-07-29T05:55:28;8.85;;;4.57;;
9783;SDS011;4931;44.874;-1.092;2023-07-29T05:57:54;7.70;;;4.88;;
9783;SDS011;4931;44.874;-1.092;2023-07-29T06:00:20;7.07;;;4.70;;
9783;SDS011;4931;44.874;-1.092;2023-07-29T06:02:45;6.80;;;4.72;;
9783;SDS011;4931;44.874;-1.092;2023-07-29T06:05:11;9.38;;;5.03;;
9783;SDS011;4931;44.874;-1.092;2023-07-29T06:07:37;8.70;;;5.25;;
9783;SDS011;4931;44.874;-1.092;2023-07-29T06:10:03;12.40;;;5.63;;
9783;SDS011;4931;44.874;-1.092;2023-07-29T06:12:28;10.95;;;5.60;;
9783;SDS011;4931;44.874;-1.092;2023-07-29T06:14:54;8.05;;;4.80;;
9783;SDS011;4931;44.874;-1.092;2023-07-29T06:17:19;8.18;;;5.32;;
9783;SDS011;4931;44.874;-1.092;2023-07-29T06:19:45;10.70;;;5.65;;
9783;SDS011;4931;44.874;-1.092;2023-07-29T06:22:10;11.25;;;5.57;;
9783;SDS011;4931;44.874;-1.092;2023-07-29T06:24:36;11.32;;;5.65;;
9783;SDS011;4931;44.874;-1.092;2023-07-29T06:27:01;10.38;;;5.82;;
9783;SDS011;4931;44.874;-1.092;2023-07-29T06:29:27;10.50;;;5.70;;
9783;SDS011;4931;44.874;-1.092;2023-07-29T06:31:53;10.27;;;6.20;;
9783;SDS011;4931;44.874;-1.092;2023-07-29T06:34:19;11.57;;;6.22;;
9783;SDS011;4931;44.874;-1.092;2023-07-29T06:36:44;12.55;;;6.60;;
9783;SDS011;4931;44.874;-1.092;2023-07-29T06:39:10;11.77;;;7.05;;
9783;SDS011;4931;44.874;-1.092;2023-07-29T06:41:35;8.75;;;6.38;;
9783;SDS011;4931;44.874;-1.092;2023-07-29T06:44:01;12.77;;;7.63;;
9783;SDS011;4931;44.874;-1.092;2023-07-29T06:46:26;10.13;;;6.93;;
9783;SDS011;4931;44.874;-1.092;2023-07-29T06:48:52;12.50;;;7.60;;
9783;SDS011;4931;44.874;-1.092;2023-07-29T06:51:17;12.25;;;7.20;;
9783;SDS011;4931;44.874;-1.092;2023-07-29T06:53:43;14.88;;;8.25;;
9783;SDS011;4931;44.874;-1.092;2023-07-29T06:56:08;18.83;;;8.23;;
9783;SDS011;4931;44.874;-1.092;2023-07-29T06:58:34;15.50;;;7.95;;
9783;SDS011;4931;44.874;-1.092;2023-07-29T07:01:00;12.90;;;7.90;;
9783;SDS011;4931;44.874;-1.092;2023-07-29T07:03:25;12.82;;;7.90;;
9783;SDS011;4931;44.874;-1.092;2023-07-29T07:05:51;14.95;;;7.90;;
9783;SDS011;4931;44.874;-1.092;2023-07-29T07:08:16;13.93;;;9.00;;
9783;SDS011;4931;44.874;-1.092;2023-07-29T07:10:42;13.88;;;8.90;;
9783;SDS011;4931;44.874;-1.092;2023-07-29T07:13:07;14.48;;;8.85;;
9783;SDS011;4931;44.874;-1.092;2023-07-29T07:15:33;16.92;;;9.35;;
9783;SDS011;4931;44.874;-1.092;2023-07-29T07:17:58;17.15;;;11.10;;
9783;SDS011;4931;44.874;-1.092;2023-07-29T07:20:23;20.92;;;12.30;;
9783;SDS011;4931;44.874;-1.092;2023-07-29T07:22:49;16.73;;;10.48;;
9783;SDS011;4931;44.874;-1.092;2023-07-29T07:25:14;24.35;;;14.88;;
9783;SDS011;4931;44.874;-1.092;2023-07-29T07:27:40;16.35;;;11.07;;
9783;SDS011;4931;44.874;-1.092;2023-07-29T07:30:06;20.50;;;12.25;;
9783;SDS011;4931;44.874;-1.092;2023-07-29T07:32:31;18.05;;;9.27;;
9783;SDS011;4931;44.874;-1.092;2023-07-29T07:34:57;17.23;;;9.77;;
9783;SDS011;4931;44.874;-1.092;2023-07-29T07:37:22;20.08;;;9.80;;
9783;SDS011;4931;44.874;-1.092;2023-07-29T07:39:48;18.70;;;10.68;;
9783;SDS011;4931;44.874;-1.092;2023-07-29T07:42:13;17.92;;;12.20;;
9783;SDS011;4931;44.874;-1.092;2023-07-29T07:44:39;17.48;;;10.65;;
9783;SDS011;4931;44.874;-1.092;2023-07-29T07:47:04;17.25;;;9.32;;
9783;SDS011;4931;44.874;-1.092;2023-07-29T07:49:30;16.35;;;9.25;;
9783;SDS011;4931;44.874;-1.092;2023-07-29T07:51:55;14.90;;;8.80;;
9783;SDS011;4931;44.874;-1.092;2023-07-29T07:54:21;15.25;;;8.85;;
9783;SDS011;4931;44.874;-1.092;2023-07-29T07:56:46;14.85;;;8.50;;
9783;SDS011;4931;44.874;-1.092;2023-07-29T07:59:12;19.95;;;7.60;;
9783;SDS011;4931;44.874;-1.092;2023-07-29T08:01:38;15.45;;;8.30;;
9783;SDS011;4931;44.874;-1.092;2023-07-29T08:04:04;12.07;;;7.63;;
9783;SDS011;4931;44.874;-1.092;2023-07-29T08:06:30;20.80;;;8.40;;
9783;SDS011;4931;44.874;-1.092;2023-07-29T08:08:56;12.65;;;7.65;;
9783;SDS011;4931;44.874;-1.092;2023-07-29T08:11:22;16.95;;;8.20;;
9783;SDS011;4931;44.874;-1.092;2023-07-29T08:13:47;17.42;;;8.25;;
9783;SDS011;4931;44.874;-1.092;2023-07-29T08:16:13;17.27;;;7.57;;
9783;SDS011;4931;44.874;-1.092;2023-07-29T08:18:39;23.00;;;13.48;;
9783;SDS011;4931;44.874;-1.092;2023-07-29T08:21:04;22.17;;;10.95;;
9783;SDS011;4931;44.874;-1.092;2023-07-29T08:23:30;19.98;;;11.63;;
9783;SDS011;4931;44.874;-1.092;2023-07-29T08:25:58;19.58;;;9.25;;
9783;SDS011;4931;44.874;-1.092;2023-07-29T08:28:27;20.58;;;10.52;;
9783;SDS011;4931;44.874;-1.092;2023-07-29T08:30:55;17.33;;;8.00;;
9783;SDS011;4931;44.874;-1.092;2023-07-29T08:33:21;17.77;;;7.13;;
9783;SDS011;4931;44.874;-1.092;2023-07-29T08:35:46;19.50;;;7.32;;
9783;SDS011;4931;44.874;-1.092;2023-07-29T08:38:12;13.40;;;5.70;;
9783;SDS011;4931;44.874;-1.092;2023-07-29T08:40:39;17.58;;;6.50;;
9783;SDS011;4931;44.874;-1.092;2023-07-29T08:43:09;17.73;;;5.60;;
9783;SDS011;4931;44.874;-1.092;2023-07-29T08:45:39;12.77;;;6.30;;
9783;SDS011;4931;44.874;-1.092;2023-07-29T08:48:08;11.88;;;5.15;;
9783;SDS011;4931;44.874;-1.092;2023-07-29T08:53:03;11.68;;;4.80;;
9783;SDS011;4931;44.874;-1.092;2023-07-29T08:55:30;16.02;;;4.10;;
9783;SDS011;4931;44.874;-1.092;2023-07-29T08:57:57;11.10;;;2.97;;
9783;SDS011;4931;44.874;-1.092;2023-07-29T09:00:23;10.65;;;3.25;;
9783;SDS011;4931;44.874;-1.092;2023-07-29T09:02:48;15.38;;;5.70;;
9783;SDS011;4931;44.874;-1.092;2023-07-29T09:05:14;10.82;;;3.10;;
9783;SDS011;4931;44.874;-1.092;2023-07-29T09:07:39;8.73;;;2.72;;
9783;SDS011;4931;44.874;-1.092;2023-07-29T09:10:08;10.18;;;3.90;;
9783;SDS011;4931;44.874;-1.092;2023-07-29T09:12:35;4.97;;;2.50;;
9783;SDS011;4931;44.874;-1.092;2023-07-29T09:15:02;5.57;;;1.98;;
9783;SDS011;4931;44.874;-1.092;2023-07-29T09:17:30;5.22;;;2.10;;
9783;SDS011;4931;44.874;-1.092;2023-07-29T09:19:56;5.72;;;2.10;;
9783;SDS011;4931;44.874;-1.092;2023-07-29T09:22:22;14.25;;;4.95;;
9783;SDS011;4931;44.874;-1.092;2023-07-29T09:24:47;11.00;;;3.72;;
9783;SDS011;4931;44.874;-1.092;2023-07-29T09:27:25;6.50;;;2.60;;
9783;SDS011;4931;44.874;-1.092;2023-07-29T09:29:52;7.90;;;3.17;;
9783;SDS011;4931;44.874;-1.092;2023-07-29T09:32:22;7.70;;;2.38;;
9783;SDS011;4931;44.874;-1.092;2023-07-29T09:34:49;7.38;;;2.30;;
9783;SDS011;4931;44.874;-1.092;2023-07-29T09:37:21;6.07;;;2.20;;
9783;SDS011;4931;44.874;-1.092;2023-07-29T09:39:47;4.63;;;2.55;;
9783;SDS011;4931;44.874;-1.092;2023-07-29T09:42:18;5.00;;;2.45;;
9783;SDS011;4931;44.874;-1.092;2023-07-29T09:44:48;4.05;;;2.13;;
9783;SDS011;4931;44.874;-1.092;2023-07-29T09:47:24;6.28;;;2.47;;
9783;SDS011;4931;44.874;-1.092;2023-07-29T09:49:51;6.20;;;2.33;;
9783;SDS011;4931;44.874;-1.092;2023-07-29T09:52:18;8.98;;;2.65;;
9783;SDS011;4931;44.874;-1.092;2023-07-29T09:54:44;6.47;;;2.40;;
9783;SDS011;4931;44.874;-1.092;2023-07-29T09:57:12;5.90;;;2.60;;
9783;SDS011;4931;44.874;-1.092;2023-07-29T09:59:39;6.15;;;1.98;;
9783;SDS011;4931;44.874;-1.092;2023-07-29T10:02:04;5.13;;;1.75;;
9783;SDS011;4931;44.874;-1.092;2023-07-29T10:04:43;4.28;;;1.50;;
9783;SDS011;4931;44.874;-1.092;2023-07-29T10:07:11;4.82;;;1.42;;
9783;SDS011;4931;44.874;-1.092;2023-07-29T10:09:37;2.72;;;1.20;;
9783;SDS011;4931;44.874;-1.092;2023-07-29T10:12:04;7.25;;;2.50;;
9783;SDS011;4931;44.874;-1.092;2023-07-29T10:14:31;8.50;;;4.50;;
9783;SDS011;4931;44.874;-1.092;2023-07-29T10:16:57;4.43;;;2.15;;
9783;SDS011;4931;44.874;-1.092;2023-07-29T10:19:24;2.65;;;1.45;;
9783;SDS011;4931;44.874;-1.092;2023-07-29T10:21:53;5.20;;;1.50;;
9783;SDS011;4931;44.874;-1.092;2023-07-29T10:24:24;3.35;;;1.35;;
9783;SDS011;4931;44.874;-1.092;2023-07-29T10:26:56;4.20;;;1.58;;
9783;SDS011;4931;44.874;-1.092;2023-07-29T10:29:23;4.63;;;2.00;;
9783;SDS011;4931;44.874;-1.092;2023-07-29T10:31:48;2.95;;;1.20;;
9783;SDS011;4931;44.874;-1.092;2023-07-29T10:34:18;3.50;;;1.47;;
9783;SDS011;4931;44.874;-1.092;2023-07-29T10:36:46;3.38;;;1.30;;
9783;SDS011;4931;44.874;-1.092;2023-07-29T10:39:13;3.15;;;1.50;;
9783;SDS011;4931;44.874;-1.092;2023-07-29T10:41:56;6.18;;;3.65;;
9783;SDS011;4931;44.874;-1.092;2023-07-29T10:47:10;2.72;;;1.40;;
9783;SDS011;4931;44.874;-1.092;2023-07-29T10:49:39;3.28;;;1.40;;
9783;SDS011;4931;44.874;-1.092;2023-07-29T10:52:06;4.05;;;1.50;;
9783;SDS011;4931;44.874;-1.092;2023-07-29T10:54:31;3.13;;;1.40;;
9783;SDS011;4931;44.874;-1.092;2023-07-29T10:57:13;6.18;;;1.77;;
9783;SDS011;4931;44.874;-1.092;2023-07-29T10:59:40;3.33;;;1.70;;
9783;SDS011;4931;44.874;-1.092;2023-07-29T11:02:15;3.97;;;1.65;;
9783;SDS011;4931;44.874;-1.092;2023-07-29T11:04:47;3.22;;;1.63;;
9783;SDS011;4931;44.874;-1.092;2023-07-29T11:15:20;4.78;;;2.35;;
9783;SDS011;4931;44.874;-1.092;2023-07-29T11:20:25;3.70;;;1.80;;
9783;SDS011;4931;44.874;-1.092;2023-07-29T11:22:52;3.45;;;1.30;;
9783;SDS011;4931;44.874;-1.092;2023-07-29T11:25:20;3.65;;;1.90;;
9783;SDS011;4931;44.874;-1.092;2023-07-29T11:27:47;8.70;;;3.75;;
9783;SDS011;4931;44.874;-1.092;2023-07-29T11:30:13;4.40;;;2.50;;
9783;SDS011;4931;44.874;-1.092;2023-07-29T11:32:40;2.88;;;1.65;;
9783;SDS011;4931;44.874;-1.092;2023-07-29T11:37:38;2.85;;;1.20;;
9783;SDS011;4931;44.874;-1.092;2023-07-29T11:40:05;2.45;;;1.50;;
9783;SDS011;4931;44.874;-1.092;2023-07-29T11:42:35;2.30;;;1.10;;
9783;SDS011;4931;44.874;-1.092;2023-07-29T11:45:01;2.45;;;1.17;;
9783;SDS011;4931;44.874;-1.092;2023-07-29T11:47:28;2.30;;;0.82;;
9783;SDS011;4931;44.874;-1.092;2023-07-29T11:49:57;2.03;;;0.85;;
9783;SDS011;4931;44.874;-1.092;2023-07-29T11:52:24;2.13;;;0.85;;
9783;SDS011;4931;44.874;-1.092;2023-07-29T11:54:49;2.17;;;1.08;;
9783;SDS011;4931;44.874;-1.092;2023-07-29T11:57:15;1.23;;;1.08;;
9783;SDS011;4931;44.874;-1.092;2023-07-29T11:59:43;1.38;;;1.02;;
9783;SDS011;4931;44.874;-1.092;2023-07-29T12:02:13;1.40;;;0.90;;
9783;SDS011;4931;44.874;-1.092;2023-07-29T12:04:41;3.17;;;1.17;;
9783;SDS011;4931;44.874;-1.092;2023-07-29T12:07:08;0.95;;;0.85;;
9783;SDS011;4931;44.874;-1.092;2023-07-29T12:09:34;2.15;;;1.10;;
9783;SDS011;4931;44.874;-1.092;2023-07-29T12:12:02;2.78;;;1.20;;
9783;SDS011;4931;44.874;-1.092;2023-07-29T12:14:31;1.85;;;1.02;;
9783;SDS011;4931;44.874;-1.092;2023-07-29T12:16:59;2.58;;;1.23;;
9783;SDS011;4931;44.874;-1.092;2023-07-29T12:19:31;3.97;;;1.38;;
9783;SDS011;4931;44.874;-1.092;2023-07-29T12:22:04;2.65;;;1.15;;
9783;SDS011;4931;44.874;-1.092;2023-07-29T12:24:32;4.07;;;1.58;;
9783;SDS011;4931;44.874;-1.092;2023-07-29T12:26:59;2.35;;;1.70;;
9783;SDS011;4931;44.874;-1.092;2023-07-29T12:29:25;3.60;;;1.60;;
9783;SDS011;4931;44.874;-1.092;2023-07-29T12:31:58;5.03;;;1.83;;
9783;SDS011;4931;44.874;-1.092;2023-07-29T12:34:42;5.03;;;2.30;;
9783;SDS011;4931;44.874;-1.092;2023-07-29T12:37:07;5.72;;;2.53;;
9783;SDS011;4931;44.874;-1.092;2023-07-29T12:39:34;4.97;;;2.05;;
9783;SDS011;4931;44.874;-1.092;2023-07-29T12:42:04;7.78;;;2.55;;
9783;SDS011;4931;44.874;-1.092;2023-07-29T12:44:32;7.15;;;2.30;;
9783;SDS011;4931;44.874;-1.092;2023-07-29T12:47:02;7.97;;;2.75;;
9783;SDS011;4931;44.874;-1.092;2023-07-29T12:49:29;8.82;;;3.00;;
9783;SDS011;4931;44.874;-1.092;2023-07-29T12:51:58;8.00;;;2.55;;
9783;SDS011;4931;44.874;-1.092;2023-07-29T12:54:24;9.27;;;2.60;;
9783;SDS011;4931;44.874;-1.092;2023-07-29T12:56:50;10.98;;;2.60;;
9783;SDS011;4931;44.874;-1.092;2023-07-29T12:59:16;8.73;;;2.60;;
9783;SDS011;4931;44.874;-1.092;2023-07-29T13:01:41;10.40;;;2.20;;
9783;SDS011;4931;44.874;-1.092;2023-07-29T13:04:07;7.03;;;2.10;;
9783;SDS011;4931;44.874;-1.092;2023-07-29T13:06:32;7.65;;;2.20;;
9783;SDS011;4931;44.874;-1.092;2023-07-29T13:08:58;7.82;;;2.13;;
9783;SDS011;4931;44.874;-1.092;2023-07-29T13:11:23;7.60;;;2.10;;
9783;SDS011;4931;44.874;-1.092;2023-07-29T13:13:49;7.50;;;2.22;;
9783;SDS011;4931;44.874;-1.092;2023-07-29T13:16:15;8.52;;;1.58;;
9783;SDS011;4931;44.874;-1.092;2023-07-29T13:18:40;7.70;;;1.65;;
9783;SDS011;4931;44.874;-1.092;2023-07-29T13:21:06;8.48;;;1.83;;
9783;SDS011;4931;44.874;-1.092;2023-07-29T13:23:31;6.43;;;1.60;;
9783;SDS011;4931;44.874;-1.092;2023-07-29T13:25:57;6.47;;;1.50;;
9783;SDS011;4931;44.874;-1.092;2023-07-29T13:28:22;6.13;;;1.65;;
9783;SDS011;4931;44.874;-1.092;2023-07-29T13:30:48;6.28;;;1.10;;
9783;SDS011;4931;44.874;-1.092;2023-07-29T13:33:14;3.33;;;0.93;;
9783;SDS011;4931;44.874;-1.092;2023-07-29T13:35:39;2.88;;;0.90;;
9783;SDS011;4931;44.874;-1.092;2023-07-29T13:38:05;4.30;;;0.98;;
9783;SDS011;4931;44.874;-1.092;2023-07-29T13:40:31;5.03;;;0.90;;
9783;SDS011;4931;44.874;-1.092;2023-07-29T13:42:56;3.35;;;0.80;;
9783;SDS011;4931;44.874;-1.092;2023-07-29T13:45:22;2.08;;;0.68;;
9783;SDS011;4931;44.874;-1.092;2023-07-29T13:47:48;2.83;;;0.75;;
9783;SDS011;4931;44.874;-1.092;2023-07-29T13:50:15;4.38;;;0.70;;
9783;SDS011;4931;44.874;-1.092;2023-07-29T13:52:41;2.40;;;0.90;;
9783;SDS011;4931;44.874;-1.092;2023-07-29T13:55:06;2.53;;;0.93;;
9783;SDS011;4931;44.874;-1.092;2023-07-29T13:57:32;2.90;;;0.75;;
9783;SDS011;4931;44.874;-1.092;2023-07-29T13:59:58;1.42;;;0.60;;
9783;SDS011;4931;44.874;-1.092;2023-07-29T14:02:24;1.73;;;0.70;;
9783;SDS011;4931;44.874;-1.092;2023-07-29T14:04:51;2.00;;;0.60;;
9783;SDS011;4931;44.874;-1.092;2023-07-29T14:07:17;3.60;;;0.50;;
9783;SDS011;4931;44.874;-1.092;2023-07-29T14:09:43;1.90;;;0.50;;
9783;SDS011;4931;44.874;-1.092;2023-07-29T14:12:08;2.42;;;0.60;;
9783;SDS011;4931;44.874;-1.092;2023-07-29T14:14:39;2.10;;;0.52;;
9783;SDS011;4931;44.874;-1.092;2023-07-29T14:17:05;1.40;;;0.60;;
9783;SDS011;4931;44.874;-1.092;2023-07-29T14:19:32;3.53;;;1.40;;
9783;SDS011;4931;44.874;-1.092;2023-07-29T14:21:57;2.22;;;1.00;;
9783;SDS011;4931;44.874;-1.092;2023-07-29T14:24:23;1.90;;;0.63;;
9783;SDS011;4931;44.874;-1.092;2023-07-29T14:26:48;3.13;;;1.15;;
9783;SDS011;4931;44.874;-1.092;2023-07-29T14:29:14;2.17;;;0.50;;
9783;SDS011;4931;44.874;-1.092;2023-07-29T14:31:39;1.73;;;0.57;;
9783;SDS011;4931;44.874;-1.092;2023-07-29T14:34:05;2.20;;;0.80;;
9783;SDS011;4931;44.874;-1.092;2023-07-29T14:36:30;1.10;;;0.60;;
9783;SDS011;4931;44.874;-1.092;2023-07-29T14:38:56;2.40;;;0.55;;
9783;SDS011;4931;44.874;-1.092;2023-07-29T14:41:21;1.83;;;0.50;;
9783;SDS011;4931;44.874;-1.092;2023-07-29T14:43:47;3.53;;;0.50;;
9783;SDS011;4931;44.874;-1.092;2023-07-29T14:46:12;2.40;;;0.73;;
9783;SDS011;4931;44.874;-1.092;2023-07-29T14:48:38;3.65;;;0.77;;
9783;SDS011;4931;44.874;-1.092;2023-07-29T14:51:03;2.90;;;0.68;;
9783;SDS011;4931;44.874;-1.092;2023-07-29T14:53:29;3.55;;;0.82;;
9783;SDS011;4931;44.874;-1.092;2023-07-29T14:55:54;2.38;;;0.60;;
9783;SDS011;4931;44.874;-1.092;2023-07-29T14:58:20;3.72;;;0.90;;
9783;SDS011;4931;44.874;-1.092;2023-07-29T15:00:45;1.95;;;0.70;;
9783;SDS011;4931;44.874;-1.092;2023-07-29T15:03:11;2.25;;;0.82;;
9783;SDS011;4931;44.874;-1.092;2023-07-29T15:05:36;3.15;;;1.35;;
9783;SDS011;4931;44.874;-1.092;2023-07-29T15:08:02;3.63;;;1.30;;
9783;SDS011;4931;44.874;-1.092;2023-07-29T15:10:27;2.20;;;0.70;;
9783;SDS011;4931;44.874;-1.092;2023-07-29T15:12:53;1.13;;;0.70;;
9783;SDS011;4931;44.874;-1.092;2023-07-29T15:15:18;3.70;;;1.02;;
9783;SDS011;4931;44.874;-1.092;2023-07-29T15:17:44;3.65;;;0.73;;